Time;durP1;ratioP1;P1;durP2;ratioP2;P2;SDS_P1;SDS_P2;PMS_P1;PMS_P2;Temp;Humidity;BMP_temperature;BMP_pressure;BME280_temperature;BME280_humidity;BME280_pressure;Samples;Min_cycle;Max_cycle;Signal;HPM_P1;HPM_P2
2022/03/13 00:02:08;;;;;;;;;11.50;10.75;;;;;10.51;71.06;100534.34;5030951;28;45786;-83
2022/03/13 00:04:35;;;;;;;;;10.50;10.00;;;;;10.40;70.82;100522.59;5033327;28;45596;-83
2022/03/13 00:07:09;;;;;;;;;11.50;10.25;;;;;10.51;70.41;100550.09;5024017;28;45366;-83
2022/03/13 00:09:35;;;;;;;;;11.00;9.50;;;;;10.43;70.39;100528.81;5037530;28;45689;-82
2022/03/13 00:12:08;;;;;;;;;10.50;9.00;;;;;10.53;70.64;100548.41;5050177;28;45399;-83
2022/03/13 00:14:34;;;;;;;;;9.50;9.50;;;;;10.52;70.26;100542.25;5050636;28;46381;-82
2022/03/13 00:17:00;;;;;;;;;12.00;12.00;;;;;10.51;70.27;100534.34;5052117;28;45513;-83
2022/03/13 00:19:25;;;;;;;;;10.25;10.00;;;;;10.36;70.00;100502.31;5049787;28;45463;-84
2022/03/13 00:21:53;;;;;;;;;9.00;9.00;;;;;10.60;69.90;100545.13;5049794;28;45714;-83
2022/03/13 00:24:20;;;;;;;;;9.00;9.00;;;;;10.62;70.09;100538.19;5048420;28;46020;-83
2022/03/13 00:26:54;;;;;;;;;8.75;8.00;;;;;10.49;69.60;100513.28;5051858;28;45728;-83
2022/03/13 00:29:20;;;;;;;;;13.00;10.00;;;;;10.49;69.81;100509.72;5054976;28;45462;-83
2022/03/13 00:31:46;;;;;;;;;9.00;8.00;;;;;10.49;69.47;100510.66;5053144;28;45700;-82
2022/03/13 00:34:11;;;;;;;;;8.75;7.75;;;;;10.71;69.42;100542.84;5052496;28;45942;-82
2022/03/13 00:36:36;;;;;;;;;9.25;9.00;;;;;10.72;69.35;100545.50;5052411;28;45456;-83
2022/03/13 00:39:03;;;;;;;;;9.00;8.00;;;;;10.74;69.32;100540.31;5051883;28;45560;-83
2022/03/13 00:41:28;;;;;;;;;8.00;7.50;;;;;10.31;69.14;100466.28;5051002;28;45611;-83
2022/03/13 00:43:54;;;;;;;;;9.00;9.00;;;;;10.47;68.65;100490.41;5051071;28;46345;-84
2022/03/13 00:46:19;;;;;;;;;9.50;8.00;;;;;10.59;68.82;100506.56;5051115;28;45725;-82
2022/03/13 00:48:44;;;;;;;;;7.75;6.00;;;;;10.26;68.81;100439.00;5034738;28;45766;-83
2022/03/13 00:51:10;;;;;;;;;6.00;5.33;;;;;10.81;68.68;100523.88;5052022;28;45399;-82
2022/03/13 00:53:37;;;;;;;;;6.75;6.25;;;;;10.70;68.78;100499.88;5051947;28;46214;-83
2022/03/13 00:56:03;;;;;;;;;7.25;6.50;;;;;10.52;68.40;100468.69;5052504;28;45399;-83
2022/03/13 00:58:28;;;;;;;;;7.25;7.25;;;;;10.77;68.66;100499.22;5052315;28;45674;-84
2022/03/13 01:00:54;;;;;;;;;9.25;8.00;;;;;10.72;68.21;100486.78;5052360;28;45623;-83
2022/03/13 01:03:34;;;;;;;;;11.00;9.50;;;;;10.89;68.47;100524.09;5052177;28;45853;-82
2022/03/13 01:06:00;;;;;;;;;10.50;10.00;;;;;10.69;68.26;100479.72;5052169;28;45643;-83
2022/03/13 01:08:25;;;;;;;;;10.25;10.00;;;;;10.48;68.29;100448.41;5051934;28;45396;-83
2022/03/13 01:10:51;;;;;;;;;12.75;11.75;;;;;10.91;68.44;100519.78;5051511;28;45724;-83
2022/03/13 01:13:17;;;;;;;;;10.00;9.50;;;;;10.91;68.47;100511.88;5051994;28;46209;-83
2022/03/13 01:15:47;;;;;;;;;11.00;10.25;;;;;10.89;68.50;100514.47;5050548;28;45466;-83
2022/03/13 01:18:13;;;;;;;;;9.75;9.75;;;;;10.72;68.32;100478.91;5051160;28;45653;-83
2022/03/13 01:20:38;;;;;;;;;8.00;6.50;;;;;10.77;68.43;100480.81;5052566;28;45634;-83
2022/03/13 01:23:03;;;;;;;;;7.00;6.25;;;;;10.59;68.24;100456.63;5051565;28;45479;-82
2022/03/13 01:25:29;;;;;;;;;9.75;9.00;;;;;10.60;68.12;100453.16;5051594;28;45709;-84
2022/03/13 01:27:54;;;;;;;;;9.75;9.75;;;;;10.87;67.92;100499.50;5052144;28;45522;-82
2022/03/13 01:30:19;;;;;;;;;6.00;6.00;;;;;10.75;68.06;100472.00;5050695;28;45332;-83
2022/03/13 01:32:52;;;;;;;;;9.50;7.75;;;;;10.21;67.73;100376.63;5051668;28;46697;-83
2022/03/13 01:35:23;;;;;;;;;7.25;7.25;;;;;10.13;67.65;100370.25;5051313;28;45893;-82
2022/03/13 01:37:49;;;;;;;;;7.25;7.25;;;;;10.72;67.96;100453.50;5051920;28;45423;-83
2022/03/13 01:40:20;;;;;;;;;7.25;7.25;;;;;10.88;67.94;100488.13;5051340;28;46056;-83
2022/03/13 01:42:47;;;;;;;;;6.75;5.75;;;;;10.86;67.67;100482.81;5051732;28;46695;-83
2022/03/13 01:45:18;;;;;;;;;6.75;6.75;;;;;10.64;67.94;100449.78;5050887;28;45897;-83
2022/03/13 01:47:44;;;;;;;;;7.00;7.00;;;;;10.81;67.82;100477.44;5050486;28;45474;-82
2022/03/13 01:50:11;;;;;;;;;10.00;9.00;;;;;10.80;67.80;100483.53;5033529;28;45708;-82
2022/03/13 01:52:39;;;;;;;;;8.00;8.00;;;;;10.58;68.05;100444.31;5051464;28;45418;-83
2022/03/13 01:55:05;;;;;;;;;9.75;9.25;;;;;10.77;67.97;100470.28;5051086;28;45417;-82
2022/03/13 01:57:32;;;;;;;;;5.00;5.00;;;;;10.29;67.77;100401.41;5050807;28;45401;-83
2022/03/13 01:59:59;;;;;;;;;9.75;8.25;;;;;10.49;68.03;100452.84;5051310;28;46208;-83
2022/03/13 02:02:28;;;;;;;;;9.25;9.00;;;;;10.40;68.37;100443.78;5049422;28;45506;-83
2022/03/13 02:04:56;;;;;;;;;1.00;0.25;;;;;10.07;68.62;100412.97;5051740;28;45565;-84
2022/03/13 02:07:23;;;;;;;;;11.25;10.00;;;;;9.90;68.60;100391.47;5051066;28;45475;-83
2022/03/13 02:09:50;;;;;;;;;9.75;9.75;;;;;10.24;68.87;100451.16;5051533;28;45607;-83
2022/03/13 02:12:20;;;;;;;;;8.00;6.75;;;;;10.17;69.16;100456.16;5051086;28;47368;-82
2022/03/13 02:14:50;;;;;;;;;7.75;6.75;;;;;9.99;69.19;100435.47;5051135;28;45998;-83
2022/03/13 02:17:34;;;;;;;;;8.00;8.00;;;;;9.68;69.22;100399.47;5049815;28;45889;-83
2022/03/13 02:20:00;;;;;;;;;8.25;8.25;;;;;9.97;69.72;100450.28;5051141;28;45736;-83
2022/03/13 02:22:25;;;;;;;;;6.75;6.00;;;;;9.87;69.55;100443.84;5050597;28;46135;-83
2022/03/13 02:24:51;;;;;;;;;9.00;9.00;;;;;9.63;69.47;100401.06;5051488;28;45582;-83
2022/03/13 02:27:23;;;;;;;;;6.50;6.50;;;;;9.74;69.77;100436.41;5051107;28;45526;-84
2022/03/13 02:29:49;;;;;;;;;6.50;6.25;;;;;9.42;69.59;100385.50;5051503;28;45701;-82
2022/03/13 02:32:14;;;;;;;;;5.75;5.75;;;;;9.71;70.03;100452.06;5050608;28;45435;-83
2022/03/13 02:34:40;;;;;;;;;9.00;9.00;;;;;9.59;69.92;100413.16;5041428;28;45556;-83
2022/03/13 02:37:18;;;;;;;;;10.25;10.00;;;;;9.41;70.05;100394.19;5030182;28;45359;-83
2022/03/13 02:39:43;;;;;;;;;10.25;9.75;;;;;9.33;70.06;100391.31;5030688;28;45335;-83
2022/03/13 02:42:09;;;;;;;;;11.00;9.00;;;;;9.01;70.22;100348.25;5030437;28;45552;-82
2022/03/13 02:44:35;;;;;;;;;9.75;8.75;;;;;9.45;70.07;100422.31;5035113;28;45278;-82
2022/03/13 02:47:04;;;;;;;;;8.50;8.00;;;;;9.40;70.21;100424.78;5049176;28;45399;-84
2022/03/13 02:49:31;;;;;;;;;9.50;9.50;;;;;9.24;70.09;100405.00;5050447;28;45418;-83
2022/03/13 02:51:59;;;;;;;;;11.50;9.50;;;;;9.08;70.40;100389.59;5050490;28;45714;-83
2022/03/13 02:54:25;;;;;;;;;11.00;10.00;;;;;9.09;70.50;100383.50;5031702;28;45630;-84
2022/03/13 02:56:51;;;;;;;;;9.50;9.00;;;;;9.17;70.60;100410.91;5050980;28;45462;-83
2022/03/13 02:59:18;;;;;;;;;8.75;8.50;;;;;9.18;70.43;100409.16;5050309;28;45487;-83
2022/03/13 03:01:43;;;;;;;;;10.00;9.50;;;;;8.93;70.70;100374.22;5050535;28;45723;-82
2022/03/13 03:04:09;;;;;;;;;9.25;9.00;;;;;9.10;70.73;100403.63;5050347;28;45370;-83
2022/03/13 03:06:37;;;;;;;;;9.00;7.75;;;;;8.99;70.82;100397.13;5050260;28;45566;-83
2022/03/13 03:09:03;;;;;;;;;5.75;4.75;;;;;9.03;70.72;100405.16;5050151;28;45403;-82
2022/03/13 03:11:32;;;;;;;;;8.00;8.00;;;;;8.89;70.90;100387.16;5050361;28;46262;-83
2022/03/13 03:13:58;;;;;;;;;8.50;8.25;;;;;8.84;70.95;100380.88;5031736;28;45880;-83
2022/03/13 03:16:24;;;;;;;;;8.75;8.50;;;;;8.77;71.05;100380.66;5048433;28;45558;-83
2022/03/13 03:18:49;;;;;;;;;8.75;7.25;;;;;8.68;70.70;100362.00;5050529;28;45610;-83
2022/03/13 03:21:15;;;;;;;;;8.00;8.00;;;;;8.66;71.02;100350.53;5049831;28;46084;-83
2022/03/13 03:23:40;;;;;;;;;7.75;7.75;;;;;8.91;71.05;100401.19;5050340;28;45811;-83
2022/03/13 03:26:07;;;;;;;;;9.25;7.25;;;;;8.91;71.09;100395.97;5049918;28;45676;-83
2022/03/13 03:28:34;;;;;;;;;9.00;8.00;;;;;8.77;70.58;100375.44;5049680;28;46013;-83
2022/03/13 03:31:01;;;;;;;;;9.00;8.00;;;;;8.30;70.78;100296.81;5049749;28;46293;-84
2022/03/13 03:33:27;;;;;;;;;10.50;9.75;;;;;8.29;70.92;100288.06;5048619;28;45435;-83
2022/03/13 03:35:52;;;;;;;;;10.75;8.25;;;;;8.71;70.79;100369.06;5050355;28;45427;-83
2022/03/13 03:38:18;;;;;;;;;8.75;8.00;;;;;8.72;71.02;100374.38;5049869;28;45854;-82
2022/03/13 03:40:44;;;;;;;;;9.50;8.50;;;;;8.61;70.87;100356.47;5050091;28;45683;-83
2022/03/13 03:43:09;;;;;;;;;7.00;7.00;;;;;8.56;71.15;100353.66;5030829;28;46050;-83
2022/03/13 03:45:34;;;;;;;;;8.00;8.00;;;;;8.78;71.25;100386.78;5049676;28;45398;-83
2022/03/13 03:48:00;;;;;;;;;9.50;9.00;;;;;8.21;70.93;100289.50;5048887;28;45919;-83
2022/03/13 03:50:26;;;;;;;;;9.25;8.50;;;;;8.08;70.93;100267.25;5048325;28;45545;-83
2022/03/13 03:52:54;;;;;;;;;9.00;9.00;;;;;8.17;70.83;100287.63;5050447;28;45374;-83
2022/03/13 03:55:20;;;;;;;;;7.50;5.00;;;;;8.61;70.70;100362.59;5049036;28;45604;-84
2022/03/13 03:57:45;;;;;;;;;9.75;8.25;;;;;8.23;71.02;100283.53;5045273;28;45628;-83
2022/03/13 04:00:11;;;;;;;;;7.50;7.50;;;;;8.68;70.85;100354.13;5048015;28;46741;-84
2022/03/13 04:02:38;;;;;;;;;9.75;8.75;;;;;8.36;70.79;100281.31;5049731;28;45743;-84
2022/03/13 04:05:04;;;;;;;;;8.00;8.00;;;;;8.92;70.79;100377.69;5031000;28;45741;-84
2022/03/13 04:07:30;;;;;;;;;11.00;9.50;;;;;8.57;70.71;100317.88;5049611;28;45539;-84
2022/03/13 04:09:55;;;;;;;;;7.00;6.75;;;;;9.00;70.66;100380.56;5049626;28;45470;-83
2022/03/13 04:12:21;;;;;;;;;8.75;8.00;;;;;8.93;70.04;100363.75;5049154;28;45522;-83
2022/03/13 04:14:46;;;;;;;;;7.50;7.50;;;;;8.66;69.84;100305.13;5031991;28;45909;-84
2022/03/13 04:17:11;;;;;;;;;5.67;5.67;;;;;8.60;70.46;100294.44;5048202;28;45941;-83
2022/03/13 04:19:37;;;;;;;;;7.25;7.25;;;;;8.63;69.79;100292.81;5049011;28;46141;-84
2022/03/13 04:22:02;;;;;;;;;8.33;8.33;;;;;9.13;69.79;100369.69;5051407;28;45369;-83
2022/03/13 04:24:30;;;;;;;;;9.25;8.50;;;;;9.22;69.80;100377.84;5049088;28;45530;-84
2022/03/13 04:26:56;;;;;;;;;5.75;5.75;;;;;9.10;69.63;100345.97;5047936;28;45615;-83
2022/03/13 04:29:23;;;;;;;;;5.00;5.00;;;;;9.39;69.69;100402.00;5030950;28;48528;-83
2022/03/13 04:31:50;;;;;;;;;7.25;7.25;;;;;9.44;69.08;100405.69;5050006;28;45758;-83
2022/03/13 04:34:16;;;;;;;;;7.25;7.25;;;;;9.34;69.12;100382.63;5042243;28;45551;-83
2022/03/13 04:36:41;;;;;;;;;8.75;8.50;;;;;9.43;69.14;100389.91;5029433;28;45367;-85
2022/03/13 04:39:08;;;;;;;;;9.00;8.25;;;;;9.52;68.85;100406.84;5028442;28;46061;-82
2022/03/13 04:41:34;;;;;;;;;5.50;5.00;;;;;9.30;68.92;100362.38;5028656;28;46046;-84
2022/03/13 04:43:59;;;;;;;;;9.00;7.50;;;;;9.55;68.83;100399.06;5029523;28;45585;-83
2022/03/13 04:46:25;;;;;;;;;8.75;8.00;;;;;9.07;68.53;100318.78;5033883;28;45517;-84
2022/03/13 04:48:53;;;;;;;;;5.00;5.00;;;;;9.56;68.58;100407.84;5049098;28;45576;-84
2022/03/13 04:51:19;;;;;;;;;5.75;5.75;;;;;8.98;68.42;100301.00;5049138;28;45851;-84
2022/03/13 04:53:44;;;;;;;;;8.00;7.50;;;;;9.28;68.33;100358.81;5049308;28;45647;-82
2022/03/13 04:56:10;;;;;;;;;7.00;6.75;;;;;9.47;68.60;100376.94;5048371;28;45292;-84
2022/03/13 04:58:35;;;;;;;;;7.00;6.25;;;;;9.46;68.21;100371.66;5048785;28;45804;-84
2022/03/13 05:01:01;;;;;;;;;7.00;5.25;;;;;9.59;68.06;100389.56;5048165;28;45466;-84
2022/03/13 05:03:27;;;;;;;;;9.00;8.50;;;;;9.56;68.18;100389.47;5048851;28;45482;-83
2022/03/13 05:05:53;;;;;;;;;9.50;8.75;;;;;9.47;68.33;100369.06;5049365;28;45875;-83
2022/03/13 05:08:19;;;;;;;;;5.50;5.00;;;;;9.62;67.89;100387.03;5030496;28;46391;-84
2022/03/13 05:10:47;;;;;;;;;5.25;5.25;;;;;9.61;67.94;100387.00;5048054;28;45999;-83
2022/03/13 05:13:14;;;;;;;;;8.00;7.00;;;;;9.58;67.62;100385.16;5043356;28;45300;-83
2022/03/13 05:15:41;;;;;;;;;6.00;4.00;;;;;9.43;67.82;100355.81;5051157;28;45741;-83
2022/03/13 05:18:07;;;;;;;;;7.50;6.75;;;;;9.54;67.70;100380.66;5050618;28;47955;-84
2022/03/13 05:20:34;;;;;;;;;6.75;5.00;;;;;9.47;67.66;100376.94;5052501;28;45628;-83
2022/03/13 05:23:00;;;;;;;;;7.50;5.00;;;;;9.09;67.45;100320.59;5052688;28;45637;-83
2022/03/13 05:25:28;;;;;;;;;7.25;7.00;;;;;9.33;67.60;100362.47;5051178;28;45423;-84
2022/03/13 05:27:53;;;;;;;;;7.25;6.00;;;;;9.28;67.95;100362.31;5052266;28;45676;-84
2022/03/13 05:30:20;;;;;;;;;5.75;5.25;;;;;9.20;67.80;100352.41;5051815;28;45348;-83
2022/03/13 05:32:46;;;;;;;;;7.00;7.00;;;;;9.03;67.55;100323.03;5052266;28;45725;-84
2022/03/13 05:35:12;;;;;;;;;8.25;7.25;;;;;9.39;67.67;100377.53;5033708;28;45589;-82
2022/03/13 05:37:37;;;;;;;;;7.00;5.00;;;;;9.45;68.03;100382.97;5051989;28;45574;-83
2022/03/13 05:40:05;;;;;;;;;9.25;6.75;;;;;9.47;67.92;100391.78;5051240;28;45487;-84
2022/03/13 05:42:30;;;;;;;;;5.00;4.25;;;;;9.34;67.64;100371.22;5033833;28;45825;-83
2022/03/13 05:44:56;;;;;;;;;4.50;4.25;;;;;9.20;67.56;100345.44;5052326;28;45795;-84
2022/03/13 05:47:21;;;;;;;;;6.00;6.00;;;;;9.09;67.88;100327.56;5051402;28;45606;-83
2022/03/13 05:49:47;;;;;;;;;5.00;4.00;;;;;9.45;67.80;100382.97;5050789;28;45391;-83
2022/03/13 05:52:16;;;;;;;;;4.25;3.75;;;;;9.33;68.03;100358.97;5051856;28;45687;-84
2022/03/13 05:54:43;;;;;;;;;7.50;5.00;;;;;9.48;67.86;100386.59;5050808;28;45606;-83
2022/03/13 05:57:10;;;;;;;;;5.50;5.00;;;;;9.41;67.27;100370.59;5051006;28;45798;-83
2022/03/13 05:59:41;;;;;;;;;5.00;5.00;;;;;9.52;67.46;100388.47;5051903;28;45718;-82
2022/03/13 06:02:07;;;;;;;;;4.00;4.00;;;;;9.62;67.34;100405.41;5051194;28;45584;-83
2022/03/13 06:04:37;;;;;;;;;4.75;4.75;;;;;9.63;67.35;100404.56;5051742;28;45755;-83
2022/03/13 06:07:04;;;;;;;;;4.50;4.50;;;;;9.13;67.19;100318.97;5050867;28;46360;-83
2022/03/13 06:09:29;;;;;;;;;8.00;6.75;;;;;9.64;66.84;100408.97;5050899;28;45809;-83
2022/03/13 06:11:54;;;;;;;;;5.00;4.25;;;;;9.68;66.95;100416.09;5051248;28;45379;-83
2022/03/13 06:14:20;;;;;;;;;4.75;4.75;;;;;9.62;67.26;100401.91;5050110;28;45467;-83
2022/03/13 06:16:45;;;;;;;;;7.33;6.33;;;;;9.71;67.55;100416.22;5050588;28;45569;-84
2022/03/13 06:19:11;;;;;;;;;4.00;3.75;;;;;9.49;67.15;100376.97;5050758;28;45569;-83
2022/03/13 06:21:37;;;;;;;;;4.75;4.75;;;;;9.56;66.90;100385.13;5051375;28;45398;-83
2022/03/13 06:24:03;;;;;;;;;4.25;4.25;;;;;9.42;67.17;100364.53;5032924;28;45499;-83
2022/03/13 06:26:28;;;;;;;;;4.50;4.50;;;;;9.65;66.72;100405.50;5050405;28;45810;-83
2022/03/13 06:28:54;;;;;;;;;4.75;4.75;;;;;9.48;66.74;100368.22;5051549;28;45462;-83
2022/03/13 06:31:19;;;;;;;;;3.00;3.00;;;;;9.55;66.83;100378.06;5051305;28;45512;-83
2022/03/13 06:33:45;;;;;;;;;5.00;3.00;;;;;9.69;66.49;100404.75;5049108;28;45376;-84
2022/03/13 06:36:11;;;;;;;;;4.50;4.00;;;;;9.76;66.66;100408.50;5030615;28;45471;-83
2022/03/13 06:38:37;;;;;;;;;4.50;4.50;;;;;9.62;66.04;100383.53;5030388;28;45764;-84
2022/03/13 06:41:02;;;;;;;;;3.25;3.25;;;;;9.56;66.32;100384.22;5030379;28;45368;-83
2022/03/13 06:43:28;;;;;;;;;5.00;4.00;;;;;9.81;66.39;100425.28;5031005;28;45530;-84
2022/03/13 06:45:54;;;;;;;;;4.00;3.50;;;;;9.50;66.08;100363.03;5031605;28;45547;-83
2022/03/13 06:48:21;;;;;;;;;4.00;4.00;;;;;9.79;66.68;100406.84;5031342;28;45676;-83
2022/03/13 06:50:47;;;;;;;;;4.00;4.00;;;;;9.92;65.69;100425.63;5051423;28;45414;-83
2022/03/13 06:53:13;;;;;;;;;4.00;4.00;;;;;9.75;65.95;100402.34;5050707;28;45375;-83
2022/03/13 06:55:40;;;;;;;;;6.00;5.00;;;;;9.94;66.19;100434.41;5050182;28;45815;-84
2022/03/13 06:58:05;;;;;;;;;4.50;4.50;;;;;9.96;65.86;100422.25;5031974;28;45877;-83
2022/03/13 07:00:30;;;;;;;;;4.75;4.75;;;;;10.03;66.15;100430.34;5049423;28;45706;-83
2022/03/13 07:02:56;;;;;;;;;3.50;3.50;;;;;9.90;65.79;100401.03;5050448;28;45506;-83
2022/03/13 07:05:23;;;;;;;;;3.50;3.00;;;;;10.16;65.67;100430.75;5050416;28;45904;-83
2022/03/13 07:07:49;;;;;;;;;3.00;3.00;;;;;9.91;65.21;100376.59;5050226;28;45916;-83
2022/03/13 07:10:14;;;;;;;;;3.50;3.50;;;;;10.19;65.12;100405.47;5031750;28;45768;-83
2022/03/13 07:12:41;;;;;;;;;3.00;3.00;;;;;10.39;64.95;100427.09;5050772;28;45553;-83
2022/03/13 07:15:10;;;;;;;;;3.00;2.50;;;;;10.47;64.38;100425.59;5050010;28;45537;-83
2022/03/13 07:17:35;;;;;;;;;2.25;2.25;;;;;10.29;64.35;100390.91;5048371;28;45692;-83
2022/03/13 07:20:00;;;;;;;;;5.75;4.00;;;;;9.91;64.34;100318.84;5050282;28;45383;-83
2022/03/13 07:22:26;;;;;;;;;3.00;3.00;;;;;10.19;64.07;100375.69;5050453;28;45693;-83
2022/03/13 07:24:51;;;;;;;;;4.00;4.00;;;;;9.78;64.03;100304.44;5049965;28;45711;-84
2022/03/13 07:27:16;;;;;;;;;3.00;3.00;;;;;10.33;64.05;100398.91;5049641;28;45442;-84
2022/03/13 07:29:43;;;;;;;;;2.50;1.75;;;;;10.31;63.83;100397.09;5050597;28;45586;-84
2022/03/13 07:32:08;;;;;;;;;3.50;3.50;;;;;10.38;64.09;100425.34;5049684;28;45735;-83
2022/03/13 07:34:34;;;;;;;;;3.25;3.00;;;;;10.06;64.35;100377.06;5040673;28;45516;-84
2022/03/13 07:36:59;;;;;;;;;2.00;2.00;;;;;10.32;64.46;100426.03;5030004;28;45839;-83
2022/03/13 07:39:25;;;;;;;;;3.00;3.00;;;;;9.89;64.11;100368.66;5029305;28;45597;-83
2022/03/13 07:41:51;;;;;;;;;3.00;3.00;;;;;10.16;64.76;100408.00;5030249;28;45766;-83
2022/03/13 07:44:17;;;;;;;;;3.00;3.00;;;;;10.11;63.99;100398.22;5029723;28;46175;-83
2022/03/13 07:46:42;;;;;;;;;4.00;4.00;;;;;10.35;63.67;100427.88;5037012;28;45715;-83
2022/03/13 07:49:07;;;;;;;;;4.00;3.25;;;;;10.02;63.63;100383.06;5031466;28;45677;-84
2022/03/13 07:51:34;;;;;;;;;4.75;4.25;;;;;9.91;63.74;100363.47;5050177;28;45518;-83
2022/03/13 07:54:00;;;;;;;;;5.00;4.00;;;;;9.98;63.74;100389.06;5049170;28;45693;-83
2022/03/13 07:56:25;;;;;;;;;4.00;3.00;;;;;9.92;63.74;100373.13;5049596;28;45514;-83
2022/03/13 07:58:50;;;;;;;;;3.75;3.25;;;;;10.26;64.17;100428.50;5050215;28;45729;-82
2022/03/13 08:01:16;;;;;;;;;4.50;4.00;;;;;10.15;63.60;100395.72;5030554;28;45481;-83
2022/03/13 08:03:44;;;;;;;;;3.00;3.00;;;;;10.09;63.57;100356.13;5050098;28;45522;-84
2022/03/13 08:06:10;;;;;;;;;4.00;4.00;;;;;10.68;63.17;100425.34;5049748;28;45991;-84
2022/03/13 08:08:35;;;;;;;;;4.00;4.00;;;;;10.72;62.64;100410.56;5048907;28;45709;-83
2022/03/13 08:11:01;;;;;;;;;4.00;4.00;;;;;10.78;62.28;100413.34;5048713;28;45434;-84
2022/03/13 08:13:26;;;;;;;;;4.00;4.00;;;;;10.70;62.71;100392.13;5049158;28;46809;-83
2022/03/13 08:15:51;;;;;;;;;2.00;2.00;;;;;10.80;62.26;100409.94;5049305;28;45474;-83
2022/03/13 08:18:17;;;;;;;;;3.25;3.25;;;;;10.58;62.29;100373.38;5052834;28;45895;-83
2022/03/13 08:20:43;;;;;;;;;3.25;2.25;;;;;10.69;62.07;100382.47;5047885;28;45434;-84
2022/03/13 08:23:08;;;;;;;;;4.00;3.00;;;;;10.71;61.82;100401.78;5049904;28;45876;-83
2022/03/13 08:25:34;;;;;;;;;3.33;3.33;;;;;10.55;62.19;100373.28;5049834;28;45711;-83
2022/03/13 08:28:00;;;;;;;;;4.50;4.50;;;;;10.57;61.71;100383.00;5048915;28;46107;-83
2022/03/13 08:30:25;;;;;;;;;5.00;3.75;;;;;10.74;61.97;100406.25;5048306;28;45743;-83
2022/03/13 08:32:51;;;;;;;;;2.50;2.50;;;;;10.78;62.00;100397.56;5049109;28;45542;-83
2022/03/13 08:35:17;;;;;;;;;2.50;2.25;;;;;10.84;61.84;100388.16;5027879;28;45872;-83
2022/03/13 08:37:43;;;;;;;;;2.75;2.00;;;;;10.58;61.46;100341.84;5048081;28;45680;-84
2022/03/13 08:40:10;;;;;;;;;2.00;2.00;;;;;10.59;61.35;100315.63;5047862;28;45294;-83
2022/03/13 08:42:35;;;;;;;;;3.00;3.00;;;;;10.68;60.82;100325.47;5048059;28;45682;-84
2022/03/13 08:45:01;;;;;;;;;2.25;2.25;;;;;11.06;60.83;100379.09;5049055;28;45344;-83
2022/03/13 08:47:27;;;;;;;;;2.00;2.00;;;;;10.98;60.47;100328.03;5050909;28;45513;-83
2022/03/13 08:49:54;;;;;;;;;2.00;2.00;;;;;11.51;60.04;100402.16;5051237;28;45680;-84
2022/03/13 08:52:19;;;;;;;;;1.00;1.00;;;;;11.35;59.93;100339.50;5050947;28;45843;-83
2022/03/13 08:54:45;;;;;;;;;1.00;1.00;;;;;11.44;59.63;100302.00;5063747;28;45291;-83
2022/03/13 08:57:10;;;;;;;;;2.00;2.00;;;;;12.10;59.06;100389.56;5055252;28;45128;-83
2022/03/13 08:59:36;;;;;;;;;2.00;2.00;;;;;11.99;58.52;100356.84;5054796;28;45427;-83
2022/03/13 09:02:02;;;;;;;;;2.50;2.50;;;;;12.00;58.53;100341.94;5031424;28;47077;-84
2022/03/13 09:04:28;;;;;;;;;1.25;1.25;;;;;12.15;57.89;100342.25;5049505;28;45794;-83
2022/03/13 09:06:54;;;;;;;;;2.25;2.25;;;;;11.87;57.64;100270.56;5064687;28;45404;-85
2022/03/13 09:09:20;;;;;;;;;1.75;1.75;;;;;12.86;57.82;100416.69;5058784;28;45300;-83
2022/03/13 09:11:47;;;;;;;;;3.00;2.25;;;;;12.80;57.63;100360.28;5037222;28;47445;-83
2022/03/13 09:14:13;;;;;;;;;2.50;2.50;;;;;13.13;56.83;100371.47;5051114;28;45600;-83
2022/03/13 09:16:43;;;;;;;;;2.50;2.00;;;;;13.22;56.94;100370.78;5047814;28;45550;-83
2022/03/13 09:19:09;;;;;;;;;3.75;2.00;;;;;13.09;56.76;100334.44;5038525;28;45873;-84
2022/03/13 09:21:38;;;;;;;;;1.00;1.00;;;;;13.67;55.88;100406.75;5052008;28;46319;-83
2022/03/13 09:24:06;;;;;;;;;2.25;2.25;;;;;13.30;55.61;100340.16;5050878;28;46414;-84
2022/03/13 09:26:34;;;;;;;;;3.00;3.00;;;;;13.82;55.45;100398.19;5055819;28;45563;-83
2022/03/13 09:29:00;;;;;;;;;1.50;1.50;;;;;13.66;55.24;100373.28;5053618;28;45831;-82
2022/03/13 09:31:26;;;;;;;;;1.00;1.00;;;;;13.79;55.34;100400.75;5052594;28;45529;-82
2022/03/13 09:33:51;;;;;;;;;2.00;2.00;;;;;13.53;55.10;100387.16;5057209;28;45585;-82
2022/03/13 09:36:16;;;;;;;;;1.75;1.50;;;;;13.40;54.58;100392.22;5053626;28;45667;-82
2022/03/13 09:38:42;;;;;;;;;1.50;1.25;;;;;13.30;55.05;100392.00;5049241;28;45501;-83
2022/03/13 09:41:07;;;;;;;;;2.25;2.25;;;;;12.98;55.09;100323.69;5050745;28;46045;-84
2022/03/13 09:43:32;;;;;;;;;2.00;2.00;;;;;13.15;55.67;100356.56;5030333;28;46759;-84
2022/03/13 09:45:58;;;;;;;;;2.00;2.00;;;;;13.19;55.09;100357.50;5051115;28;45854;-82
2022/03/13 09:48:23;;;;;;;;;2.00;2.00;;;;;13.11;55.20;100356.47;5054261;28;45433;-83
2022/03/13 09:50:49;;;;;;;;;3.50;2.00;;;;;13.32;55.46;100398.22;5035327;28;46300;-84
2022/03/13 09:53:15;;;;;;;;;1.75;1.50;;;;;13.18;55.08;100371.56;5049860;28;45736;-83
2022/03/13 09:55:40;;;;;;;;;2.00;1.25;;;;;13.23;55.49;100371.66;5049592;28;45522;-83
2022/03/13 09:58:09;;;;;;;;;3.50;3.50;;;;;13.10;54.83;100347.69;5050378;28;45688;-84
2022/03/13 10:00:36;;;;;;;;;3.00;3.00;;;;;13.41;54.89;100396.66;5047292;28;46724;-84
2022/03/13 10:03:05;;;;;;;;;2.75;2.50;;;;;13.43;54.92;100399.31;5053567;28;45407;-84
2022/03/13 10:05:43;;;;;;;;;2.25;2.00;;;;;13.41;55.25;100379.91;5050252;28;45607;-81
2022/03/13 10:08:09;;;;;;;;;3.00;3.00;;;;;13.05;55.15;100312.41;5049430;28;45802;-83
2022/03/13 10:10:42;;;;;;;;;3.00;2.50;;;;;13.67;55.04;100398.81;5037156;28;47902;-82
2022/03/13 10:13:08;;;;;;;;;1.50;1.50;;;;;13.65;54.33;100409.38;5046548;28;46230;-83
2022/03/13 10:15:41;;;;;;;;;3.00;3.00;;;;;13.57;54.66;100404.81;5050398;28;46064;-83
2022/03/13 10:18:14;;;;;;;;;1.25;1.25;;;;;13.45;54.51;100375.56;5049929;28;45630;-82
2022/03/13 10:20:41;;;;;;;;;2.00;2.00;;;;;13.48;55.04;100376.50;5048747;28;46456;-84
2022/03/13 10:23:26;;;;;;;;;3.00;3.00;;;;;13.56;55.18;100384.56;5047632;28;46072;-83
2022/03/13 10:25:53;;;;;;;;;2.75;2.75;;;;;13.25;55.42;100338.25;5049636;28;45950;-84
2022/03/13 10:28:23;;;;;;;;;3.00;3.00;;;;;13.58;55.46;100396.91;5051660;28;45528;-82
2022/03/13 10:31:06;;;;;;;;;3.00;3.00;;;;;13.52;55.72;100390.66;5037395;28;47433;-83
2022/03/13 10:33:43;;;;;;;;;3.00;3.00;;;;;13.45;55.90;100386.13;5068128;28;45461;-83
2022/03/13 10:36:08;;;;;;;;;3.00;3.00;;;;;13.40;55.92;100375.50;5067797;28;45292;-82
2022/03/13 10:38:35;;;;;;;;;2.50;2.50;;;;;13.21;56.31;100347.88;5062457;28;45116;-84
2022/03/13 10:41:03;;;;;;;;;2.50;2.00;;;;;13.38;55.53;100380.75;5059465;28;45389;-84
2022/03/13 10:43:29;;;;;;;;;3.00;3.00;;;;;13.32;55.71;100363.91;5063619;28;46074;-83
2022/03/13 10:45:56;;;;;;;;;2.00;2.00;;;;;13.36;55.95;100373.66;5060500;28;45406;-82
2022/03/13 10:48:36;;;;;;;;;3.00;3.00;;;;;13.41;55.82;100382.56;5052193;28;45455;-82
2022/03/13 10:51:12;;;;;;;;;3.00;3.00;;;;;13.21;56.09;100329.41;5034394;28;48303;-85
2022/03/13 10:53:41;;;;;;;;;3.00;3.00;;;;;13.09;55.19;100311.59;5048126;28;45967;-84
2022/03/13 10:56:14;;;;;;;;;4.00;3.00;;;;;12.84;55.62;100273.34;5027100;28;45628;-81
2022/03/13 10:58:48;;;;;;;;;4.75;4.25;;;;;13.32;55.58;100358.63;5047937;28;45301;-83
2022/03/13 11:01:19;;;;;;;;;2.75;2.75;;;;;12.83;55.40;100281.22;5042505;28;45931;-84
2022/03/13 11:03:51;;;;;;;;;5.75;4.00;;;;;13.50;55.77;100381.84;5046604;28;45517;-82
2022/03/13 11:06:17;;;;;;;;;4.75;4.00;;;;;13.51;55.86;100378.31;5044641;28;45444;-82
2022/03/13 11:08:43;;;;;;;;;4.75;4.00;;;;;13.51;55.94;100389.78;5067969;28;45318;-83
2022/03/13 11:11:09;;;;;;;;;5.00;4.00;;;;;13.47;54.87;100376.50;5068340;28;45433;-82
2022/03/13 11:13:37;;;;;;;;;5.75;5.00;;;;;13.50;54.99;100387.13;5048175;28;45711;-83
2022/03/13 11:16:09;;;;;;;;;4.00;4.00;;;;;13.46;54.68;100380.00;5064844;28;45709;-81
2022/03/13 11:18:36;;;;;;;;;4.00;3.50;;;;;13.28;55.33;100364.72;5067912;28;45367;-82
2022/03/13 11:21:06;;;;;;;;;5.50;5.00;;;;;13.05;55.67;100325.59;5060607;28;45768;-82
2022/03/13 11:23:34;;;;;;;;;6.00;5.25;;;;;13.36;55.81;100397.44;5050040;28;45484;-83
2022/03/13 11:26:01;;;;;;;;;5.00;5.00;;;;;13.14;65.12;100380.25;5048651;28;45054;-82